createdAt,value
2018-02-27T00:00:14.345Z,0
2018-02-27T00:01:12.787Z,0
2018-02-27T00:02:12.770Z,0
2018-02-27T00:03:12.252Z,0
2018-02-27T00:04:12.734Z,0
2018-02-27T00:05:14.087Z,0
2018-02-27T00:06:11.942Z,0
2018-02-27T00:07:12.693Z,0
2018-02-27T00:08:12.656Z,0
2018-02-27T00:09:12.147Z,0
2018-02-27T00:10:13.434Z,0
2018-02-27T00:11:12.373Z,0
2018-02-27T00:12:12.615Z,0
2018-02-27T00:13:12.066Z,0
2018-02-27T00:14:12.587Z,0
2018-02-27T00:15:13.369Z,0
2018-02-27T00:16:12.265Z,0
2018-02-27T00:17:12.265Z,0
2018-02-27T00:18:12.228Z,0
2018-02-27T00:19:12.214Z,0
2018-02-27T00:20:13.305Z,0
2018-02-27T00:21:12.183Z,0
2018-02-27T00:22:11.931Z,0
2018-02-27T00:23:12.569Z,0
2018-02-27T00:24:12.123Z,0
2018-02-27T00:25:13.801Z,0
2018-02-27T00:26:11.578Z,0
2018-02-27T00:27:12.341Z,0
2018-02-27T00:28:12.057Z,0
2018-02-27T00:29:11.862Z,0
2018-02-27T00:30:13.720Z,0
2018-02-27T00:31:12.252Z,0
2018-02-27T00:32:11.990Z,0
2018-02-27T00:33:11.965Z,0
2018-02-27T00:34:12.192Z,0
2018-02-27T00:35:13.182Z,0
2018-02-27T00:36:12.214Z,0
2018-02-27T00:37:12.147Z,0
2018-02-27T00:38:11.867Z,0
2018-02-27T00:39:11.865Z,0
2018-02-27T00:40:13.215Z,0
2018-02-27T00:41:11.818Z,0
2018-02-27T00:42:11.814Z,0
2018-02-27T00:43:12.052Z,0
2018-02-27T00:44:12.728Z,0
2018-02-27T00:45:13.242Z,0
2018-02-27T00:46:11.999Z,0
2018-02-27T00:47:11.723Z,0
2018-02-27T00:48:11.953Z,0
2018-02-27T00:49:11.929Z,0
2018-02-27T00:50:12.803Z,0
2018-02-27T00:51:11.965Z,0
2018-02-27T00:52:11.882Z,0
2018-02-27T00:53:11.610Z,0
2018-02-27T00:54:11.581Z,0
2018-02-27T00:55:12.645Z,0
2018-02-27T00:56:11.800Z,0
2018-02-27T00:57:11.791Z,0
2018-02-27T00:58:11.517Z,0
2018-02-27T00:59:11.239Z,0
2018-02-27T01:00:12.637Z,0
2018-02-27T01:01:11.207Z,0
2018-02-27T01:02:11.186Z,0
2018-02-27T01:03:11.431Z,0
2018-02-27T01:04:11.654Z,0
2018-02-27T01:05:12.995Z,0
2018-02-27T01:06:11.621Z,0
2018-02-27T01:07:11.355Z,0
2018-02-27T01:08:11.333Z,0
2018-02-27T01:09:11.321Z,0
2018-02-27T01:10:12.036Z,0
2018-02-27T01:11:11.553Z,0
2018-02-27T01:12:11.260Z,0
2018-02-27T01:13:11.254Z,0
2018-02-27T01:14:10.976Z,0
2018-02-27T01:15:12.486Z,0
2018-02-27T01:16:11.446Z,0
2018-02-27T01:17:11.177Z,0
2018-02-27T01:18:11.150Z,0
2018-02-27T01:19:11.140Z,0
2018-02-27T01:20:11.783Z,0
2018-02-27T01:21:10.838Z,0
2018-02-27T01:22:14.202Z,0
2018-02-27T01:23:11.057Z,0
2018-02-27T01:24:10.786Z,0
2018-02-27T01:25:12.341Z,0
2018-02-27T01:26:11.003Z,0
2018-02-27T01:27:11.008Z,0
2018-02-27T01:28:10.964Z,0
2018-02-27T01:29:10.960Z,0
2018-02-27T01:30:12.172Z,0
2018-02-27T01:31:11.170Z,0
2018-02-27T01:32:11.156Z,0
2018-02-27T01:33:10.880Z,0
2018-02-27T01:34:10.876Z,0
2018-02-27T01:35:11.886Z,0
2018-02-27T01:36:11.077Z,0
2018-02-27T01:37:11.057Z,0
2018-02-27T01:38:11.042Z,0
2018-02-27T01:39:10.761Z,0
2018-02-27T01:40:11.929Z,0
2018-02-27T01:41:10.997Z,0
2018-02-27T01:42:10.471Z,0
2018-02-27T01:43:10.692Z,0
2018-02-27T01:44:10.938Z,0
2018-02-27T01:45:11.149Z,0
2018-02-27T01:46:10.663Z,0
2018-02-27T01:47:10.633Z,0
2018-02-27T01:48:10.863Z,0
2018-02-27T01:49:10.073Z,0
2018-02-27T01:50:11.230Z,0
2018-02-27T01:51:10.559Z,0
2018-02-27T01:52:11.666Z,0
2018-02-27T01:53:10.771Z,0
2018-02-27T01:54:10.753Z,0
2018-02-27T01:55:11.405Z,0
2018-02-27T01:56:10.709Z,0
2018-02-27T01:57:10.693Z,0
2018-02-27T01:58:10.416Z,0
2018-02-27T01:59:10.147Z,0
2018-02-27T02:00:11.108Z,0
2018-02-27T02:01:10.627Z,0
2018-02-27T02:02:10.096Z,0
2018-02-27T02:03:10.350Z,0
2018-02-27T02:04:10.311Z,0
2018-02-27T02:05:10.586Z,0
2018-02-27T02:06:10.272Z,0
2018-02-27T02:07:10.256Z,0
2018-02-27T02:08:10.489Z,0
2018-02-27T02:09:09.964Z,0
2018-02-27T02:10:11.378Z,0
2018-02-27T02:11:10.437Z,0
2018-02-27T02:12:10.159Z,0
2018-02-27T02:13:10.398Z,0
2018-02-27T02:14:10.384Z,0
2018-02-27T02:15:11.116Z,0
2018-02-27T02:16:10.092Z,0
2018-02-27T02:17:10.329Z,0
2018-02-27T02:18:10.061Z,0
2018-02-27T02:19:10.291Z,0
2018-02-27T02:20:10.536Z,0
2018-02-27T02:21:10.259Z,0
2018-02-27T02:22:09.999Z,0
2018-02-27T02:23:14.776Z,0
2018-02-27T02:24:09.954Z,0
2018-02-27T02:25:10.438Z,0
2018-02-27T02:26:09.659Z,0
2018-02-27T02:27:09.919Z,0
2018-02-27T02:28:09.621Z,0
2018-02-27T02:29:10.116Z,0
2018-02-27T02:30:09.730Z,0
2018-02-27T02:31:09.321Z,0
2018-02-27T02:32:09.547Z,0
2018-02-27T02:33:09.526Z,0
2018-02-27T02:34:09.766Z,0
2018-02-27T02:35:10.513Z,0
2018-02-27T02:36:09.729Z,0
2018-02-27T02:37:09.967Z,0
2018-02-27T02:38:10.841Z,0
2018-02-27T02:39:09.669Z,0
2018-02-27T02:40:10.495Z,0
2018-02-27T02:41:09.131Z,0
2018-02-27T02:42:09.872Z,0
2018-02-27T02:43:09.354Z,0
2018-02-27T02:44:09.588Z,0
2018-02-27T02:45:10.000Z,0
2018-02-27T02:46:09.291Z,0
2018-02-27T02:47:09.527Z,0
2018-02-27T02:48:09.764Z,0
2018-02-27T02:49:09.491Z,0
2018-02-27T02:50:09.894Z,0
2018-02-27T02:51:09.229Z,0
2018-02-27T02:52:09.680Z,0
2018-02-27T02:53:09.671Z,0
2018-02-27T02:54:09.659Z,0
2018-02-27T02:55:09.820Z,0
2018-02-27T02:56:09.113Z,0
2018-02-27T02:57:09.084Z,0
2018-02-27T02:58:09.321Z,0
2018-02-27T02:59:09.560Z,0
2018-02-27T03:00:09.680Z,0
2018-02-27T03:01:09.279Z,0
2018-02-27T03:02:09.268Z,0
2018-02-27T03:03:09.494Z,0
2018-02-27T03:04:09.217Z,0
2018-02-27T03:05:09.560Z,0
2018-02-27T03:06:09.172Z,0
2018-02-27T03:07:09.160Z,0
2018-02-27T03:08:09.145Z,0
2018-02-27T03:09:09.124Z,0
2018-02-27T03:10:09.503Z,0
2018-02-27T03:11:08.833Z,0
2018-02-27T03:12:09.066Z,0
2018-02-27T03:13:09.057Z,0
2018-02-27T03:14:09.288Z,0
2018-02-27T03:15:09.701Z,0
2018-02-27T03:16:09.016Z,0
2018-02-27T03:17:08.980Z,0
2018-02-27T03:18:09.233Z,0
2018-02-27T03:19:08.676Z,0
2018-02-27T03:20:09.618Z,0
2018-02-27T03:21:09.176Z,0
2018-02-27T03:22:08.886Z,0
2018-02-27T03:23:08.855Z,0
2018-02-27T03:24:09.100Z,0
2018-02-27T03:25:09.139Z,0
2018-02-27T03:26:08.812Z,0
2018-02-27T03:27:08.784Z,0
2018-02-27T03:28:08.524Z,0
2018-02-27T03:29:09.019Z,0
2018-02-27T03:30:08.716Z,0
2018-02-27T03:31:08.991Z,0
2018-02-27T03:32:08.949Z,0
2018-02-27T03:33:08.925Z,0
2018-02-27T03:34:08.152Z,0
2018-02-27T03:35:09.244Z,0
2018-02-27T03:36:08.879Z,0
2018-02-27T03:37:08.602Z,0
2018-02-27T03:38:08.338Z,0
2018-02-27T03:39:08.920Z,0
2018-02-27T03:40:08.387Z,0
2018-02-27T03:41:08.777Z,0
2018-02-27T03:42:08.774Z,0
2018-02-27T03:43:08.740Z,0
2018-02-27T03:44:08.472Z,0
2018-02-27T03:45:09.051Z,0
2018-02-27T03:46:08.686Z,0
2018-02-27T03:47:08.672Z,0
2018-02-27T03:48:08.391Z,0
2018-02-27T03:49:08.373Z,0
2018-02-27T03:50:08.944Z,0
2018-02-27T03:51:08.603Z,0
2018-02-27T03:52:08.581Z,0
2018-02-27T03:53:08.563Z,0
2018-02-27T03:54:10.094Z,0
2018-02-27T03:55:08.474Z,0
2018-02-27T03:56:08.507Z,0
2018-02-27T03:57:08.483Z,0
2018-02-27T03:58:08.488Z,0
2018-02-27T03:59:08.197Z,0
2018-02-27T04:00:08.295Z,0
2018-02-27T04:01:08.413Z,0
2018-02-27T04:02:08.463Z,0
2018-02-27T04:03:07.858Z,0
2018-02-27T04:04:08.101Z,0
2018-02-27T04:05:07.567Z,0
2018-02-27T04:06:08.306Z,0
2018-02-27T04:07:07.800Z,0
2018-02-27T04:08:08.020Z,0
2018-02-27T04:09:09.373Z,0
2018-02-27T04:10:08.393Z,0
2018-02-27T04:11:08.221Z,0
2018-02-27T04:12:07.946Z,0
2018-02-27T04:13:08.198Z,0
2018-02-27T04:14:08.174Z,0
2018-02-27T04:15:08.368Z,0
2018-02-27T04:16:07.872Z,0
2018-02-27T04:17:07.864Z,0
2018-02-27T04:18:08.083Z,0
2018-02-27T04:19:07.559Z,0
2018-02-27T04:20:08.145Z,0
2018-02-27T04:21:07.779Z,0
2018-02-27T04:22:07.755Z,0
2018-02-27T04:23:07.737Z,0
2018-02-27T04:24:07.718Z,0
2018-02-27T04:25:07.692Z,0
2018-02-27T04:26:07.941Z,0
2018-02-27T04:27:07.925Z,0
2018-02-27T04:28:07.639Z,0
2018-02-27T04:29:07.887Z,0
2018-02-27T04:30:07.618Z,0
2018-02-27T04:31:07.603Z,0
2018-02-27T04:32:07.565Z,0
2018-02-27T04:33:07.804Z,0
2018-02-27T04:34:07.807Z,0
2018-02-27T04:35:07.796Z,0
2018-02-27T04:36:07.765Z,0
2018-02-27T04:37:07.489Z,0
2018-02-27T04:38:07.473Z,0
2018-02-27T04:39:07.449Z,0
2018-02-27T04:40:07.432Z,0
2018-02-27T04:41:07.658Z,0
2018-02-27T04:42:07.135Z,0
2018-02-27T04:43:07.626Z,0
2018-02-27T04:44:07.361Z,0
2018-02-27T04:45:07.596Z,0
2018-02-27T04:46:07.312Z,0
2018-02-27T04:47:07.047Z,0
2018-02-27T04:48:07.532Z,0
2018-02-27T04:49:07.571Z,0
2018-02-27T04:50:07.379Z,0
2018-02-27T04:51:07.210Z,0
2018-02-27T04:52:07.457Z,0
2018-02-27T04:53:07.433Z,0
2018-02-27T04:54:06.914Z,0
2018-02-27T04:55:08.282Z,0
2018-02-27T04:56:07.139Z,0
2018-02-27T04:57:07.122Z,0
2018-02-27T04:58:07.096Z,0
2018-02-27T04:59:07.099Z,0
2018-02-27T05:00:07.256Z,0
2018-02-27T05:01:06.765Z,0
2018-02-27T05:02:07.000Z,0
2018-02-27T05:03:07.358Z,0
2018-02-27T05:04:07.221Z,0
2018-02-27T05:05:09.064Z,0
2018-02-27T05:06:06.416Z,0
2018-02-27T05:07:06.650Z,0
2018-02-27T05:08:07.147Z,0
2018-02-27T05:09:07.126Z,0
2018-02-27T05:10:07.174Z,0
2018-02-27T05:11:07.105Z,0
2018-02-27T05:12:07.066Z,0
2018-02-27T05:13:07.050Z,0
2018-02-27T05:14:06.779Z,0
2018-02-27T05:15:07.009Z,0
2018-02-27T05:16:06.739Z,0
2018-02-27T05:17:06.964Z,0
2018-02-27T05:18:06.959Z,0
2018-02-27T05:19:06.949Z,0
2018-02-27T05:20:06.664Z,0
2018-02-27T05:21:06.392Z,0
2018-02-27T05:22:06.882Z,0
2018-02-27T05:23:06.680Z,0
2018-02-27T05:24:06.588Z,0
2018-02-27T05:25:06.828Z,0
2018-02-27T05:26:06.828Z,0
2018-02-27T05:27:06.274Z,0
2018-02-27T05:28:06.514Z,0
2018-02-27T05:29:06.740Z,0
2018-02-27T05:30:06.474Z,0
2018-02-27T05:31:06.203Z,0
2018-02-27T05:32:06.440Z,0
2018-02-27T05:33:06.417Z,0
2018-02-27T05:34:06.646Z,0
2018-02-27T05:35:06.401Z,0
2018-02-27T05:36:06.363Z,0
2018-02-27T05:37:06.340Z,0
2018-02-27T05:38:06.314Z,0
2018-02-27T05:39:06.551Z,0
2018-02-27T05:40:06.278Z,4
2018-02-27T05:41:06.562Z,4
2018-02-27T05:42:06.501Z,4
2018-02-27T05:43:06.477Z,0
2018-02-27T05:44:06.463Z,4
2018-02-27T05:45:06.194Z,4
2018-02-27T05:46:06.170Z,4
2018-02-27T05:47:06.145Z,4
2018-02-27T05:48:06.133Z,4
2018-02-27T05:49:06.370Z,8
2018-02-27T05:50:06.093Z,8
2018-02-27T05:51:06.319Z,12
2018-02-27T05:52:05.800Z,12
2018-02-27T05:53:05.796Z,12
2018-02-27T05:54:06.018Z,16
2018-02-27T05:55:05.745Z,20
2018-02-27T05:56:08.929Z,24
2018-02-27T05:57:06.217Z,28
2018-02-27T05:58:05.940Z,32
2018-02-27T05:59:05.914Z,36
2018-02-27T06:00:06.173Z,44
2018-02-27T06:01:06.126Z,48
2018-02-27T06:02:05.867Z,56
2018-02-27T06:03:06.100Z,56
2018-02-27T06:04:06.081Z,68
2018-02-27T06:05:05.799Z,76
2018-02-27T06:06:05.782Z,84
2018-02-27T06:07:05.759Z,92
2018-02-27T06:08:05.996Z,100
2018-02-27T06:09:05.981Z,112
2018-02-27T06:10:05.962Z,120
2018-02-27T06:11:05.190Z,132
2018-02-27T06:12:05.974Z,140
2018-02-27T06:13:05.935Z,152
2018-02-27T06:14:05.367Z,164
2018-02-27T06:15:05.860Z,176
2018-02-27T06:16:05.608Z,192
2018-02-27T06:17:05.571Z,204
2018-02-27T06:18:05.819Z,224
2018-02-27T06:19:05.791Z,240
2018-02-27T06:20:05.519Z,260
2018-02-27T06:21:05.487Z,280
2018-02-27T06:22:05.472Z,304
2018-02-27T06:23:05.706Z,328
2018-02-27T06:24:05.200Z,348
2018-02-27T06:25:05.674Z,376
2018-02-27T06:26:05.643Z,404
2018-02-27T06:27:06.258Z,436
2018-02-27T06:28:05.361Z,468
2018-02-27T06:29:05.596Z,496
2018-02-27T06:30:05.580Z,536
2018-02-27T06:31:05.296Z,580
2018-02-27T06:32:05.034Z,604
2018-02-27T06:33:05.519Z,648
2018-02-27T06:34:05.267Z,688
2018-02-27T06:35:05.223Z,736
2018-02-27T06:36:05.465Z,784
2018-02-27T06:37:05.195Z,840
2018-02-27T06:38:05.423Z,900
2018-02-27T06:39:05.417Z,956
2018-02-27T06:40:05.391Z,1024
2018-02-27T06:41:05.116Z,1084
2018-02-27T06:42:06.454Z,1156
2018-02-27T06:43:05.336Z,1228
2018-02-27T06:44:05.325Z,1296
2018-02-27T06:45:04.796Z,1372
2018-02-27T06:46:05.021Z,1444
2018-02-27T06:47:05.258Z,1512
2018-02-27T06:48:05.007Z,1588
2018-02-27T06:49:04.965Z,1656
2018-02-27T06:50:04.945Z,1728
2018-02-27T06:51:05.171Z,1788
2018-02-27T06:52:05.259Z,1856
2018-02-27T06:53:04.894Z,1920
2018-02-27T06:54:04.879Z,1988
2018-02-27T06:55:04.855Z,2048
2018-02-27T06:56:05.112Z,2116
2018-02-27T06:57:06.469Z,2188
2018-02-27T06:58:05.050Z,2260
2018-02-27T06:59:05.030Z,2336
2018-02-27T07:00:04.770Z,2412
2018-02-27T07:01:04.984Z,2492
2018-02-27T07:02:04.718Z,2564
2018-02-27T07:03:04.711Z,2648
2018-02-27T07:04:04.692Z,2716
2018-02-27T07:05:04.432Z,2784
2018-02-27T07:06:04.917Z,2848
2018-02-27T07:07:04.368Z,2924
2018-02-27T07:08:04.352Z,2984
2018-02-27T07:09:04.586Z,3036
2018-02-27T07:10:04.834Z,3080
2018-02-27T07:11:04.817Z,3116
2018-02-27T07:12:04.547Z,3148
2018-02-27T07:13:04.818Z,3180
2018-02-27T07:14:04.759Z,3200
2018-02-27T07:15:04.478Z,3212
2018-02-27T07:16:04.465Z,3220
2018-02-27T07:17:04.473Z,3228
2018-02-27T07:18:04.681Z,3240
2018-02-27T07:19:04.666Z,3252
2018-02-27T07:20:04.414Z,3284
2018-02-27T07:21:04.639Z,3320
2018-02-27T07:22:04.609Z,3356
2018-02-27T07:23:04.590Z,3384
2018-02-27T07:24:04.579Z,3412
2018-02-27T07:25:04.046Z,3436
2018-02-27T07:26:04.536Z,3472
2018-02-27T07:27:04.272Z,3524
2018-02-27T07:28:06.145Z,3600
2018-02-27T07:29:04.494Z,3680
2018-02-27T07:30:04.471Z,3776
2018-02-27T07:31:04.455Z,3920
2018-02-27T07:32:03.924Z,4008
2018-02-27T07:33:03.920Z,4016
2018-02-27T07:34:04.156Z,4156
2018-02-27T07:35:04.143Z,4344
2018-02-27T07:36:04.355Z,4488
2018-02-27T07:37:04.115Z,4612
2018-02-27T07:38:04.064Z,4680
2018-02-27T07:39:04.065Z,4540
2018-02-27T07:40:04.036Z,4584
2018-02-27T07:41:04.272Z,4556
2018-02-27T07:42:04.000Z,4604
2018-02-27T07:43:08.209Z,4892
2018-02-27T07:44:04.230Z,4920
2018-02-27T07:45:04.224Z,4784
2018-02-27T07:46:03.931Z,4564
2018-02-27T07:47:03.929Z,4504
2018-02-27T07:48:03.899Z,4476
2018-02-27T07:49:03.893Z,4428
2018-02-27T07:50:04.133Z,4368
2018-02-27T07:51:04.177Z,4336
2018-02-27T07:52:04.091Z,4268
2018-02-27T07:53:03.557Z,4180
2018-02-27T07:54:03.539Z,4128
2018-02-27T07:55:04.029Z,4084
2018-02-27T07:56:04.023Z,4032
2018-02-27T07:57:03.494Z,4000
2018-02-27T07:58:03.992Z,3964
2018-02-27T07:59:03.712Z,3996
2018-02-27T08:00:03.698Z,3996
2018-02-27T08:01:03.686Z,3892
2018-02-27T08:02:03.674Z,3868
2018-02-27T08:03:03.394Z,3844
2018-02-27T08:04:03.689Z,3832
2018-02-27T08:05:03.627Z,3840
2018-02-27T08:06:03.613Z,3840
2018-02-27T08:07:03.583Z,3860
2018-02-27T08:08:03.811Z,3872
2018-02-27T08:09:03.544Z,3904
2018-02-27T08:10:03.829Z,3928
2018-02-27T08:11:03.264Z,4040
2018-02-27T08:12:03.739Z,4040
2018-02-27T08:13:03.482Z,4088
2018-02-27T08:14:05.364Z,4212
2018-02-27T08:15:03.438Z,4320
2018-02-27T08:16:03.674Z,4408
2018-02-27T08:17:03.657Z,4452
2018-02-27T08:18:03.392Z,4468
2018-02-27T08:19:03.380Z,4544
2018-02-27T08:20:03.627Z,4652
2018-02-27T08:21:03.587Z,4728
2018-02-27T08:22:03.117Z,4776
2018-02-27T08:23:03.302Z,4812
2018-02-27T08:24:03.547Z,4900
2018-02-27T08:25:03.554Z,4920
2018-02-27T08:26:03.284Z,4880
2018-02-27T08:27:03.492Z,4924
2018-02-27T08:28:02.965Z,4880
2018-02-27T08:29:03.659Z,4892
2018-02-27T08:30:03.448Z,4884
2018-02-27T08:31:03.180Z,4936
2018-02-27T08:32:03.446Z,4976
2018-02-27T08:33:03.124Z,5044
2018-02-27T08:34:03.111Z,5172
2018-02-27T08:35:02.861Z,5212
2018-02-27T08:36:03.328Z,5192
2018-02-27T08:37:03.319Z,5204
2018-02-27T08:38:03.294Z,5188
2018-02-27T08:39:03.028Z,5128
2018-02-27T08:40:34.870Z,5044
2018-02-27T08:41:03.254Z,5036
2018-02-27T08:42:02.965Z,5012
2018-02-27T08:43:03.207Z,5024
2018-02-27T08:44:03.249Z,5080
2018-02-27T08:45:02.673Z,5160
2018-02-27T08:46:03.163Z,5192
2018-02-27T08:47:03.136Z,5124
2018-02-27T08:48:02.611Z,5124
2018-02-27T08:49:03.107Z,5112
2018-02-27T08:50:03.107Z,5116
2018-02-27T08:51:02.873Z,5184
2018-02-27T08:52:02.802Z,5312
2018-02-27T08:53:03.039Z,5388
2018-02-27T08:54:03.034Z,5440
2018-02-27T08:55:03.009Z,5512
2018-02-27T08:56:02.747Z,5596
2018-02-27T08:57:02.736Z,5604
2018-02-27T08:58:02.705Z,5548
2018-02-27T08:59:02.686Z,5516
2018-02-27T09:00:02.699Z,5472
2018-02-27T09:01:02.954Z,5428
2018-02-27T09:02:02.634Z,5388
2018-02-27T09:03:02.620Z,5428
2018-02-27T09:04:02.874Z,5496
2018-02-27T09:05:02.856Z,5556
2018-02-27T09:06:02.615Z,5628
2018-02-27T09:07:02.562Z,5728
2018-02-27T09:08:02.798Z,5848
2018-02-27T09:09:02.820Z,5980
2018-02-27T09:10:02.270Z,6104
2018-02-27T09:11:02.763Z,6252
2018-02-27T09:12:02.477Z,6400
2018-02-27T09:13:02.461Z,6344
2018-02-27T09:14:02.453Z,6316
2018-02-27T09:15:02.490Z,6276
2018-02-27T09:16:02.671Z,6228
2018-02-27T09:17:02.419Z,6220
2018-02-27T09:18:02.633Z,6188
2018-02-27T09:19:02.636Z,6128
2018-02-27T09:20:02.354Z,6044
2018-02-27T09:21:02.590Z,5944
2018-02-27T09:22:02.327Z,5836
2018-02-27T09:23:02.561Z,5768
2018-02-27T09:24:02.067Z,5736
2018-02-27T09:25:02.523Z,5712
2018-02-27T09:26:02.000Z,5712
2018-02-27T09:27:02.234Z,5732
2018-02-27T09:28:02.479Z,5720
2018-02-27T09:29:01.952Z,5696
2018-02-27T09:30:02.939Z,5788
2018-02-27T09:31:01.668Z,5892
2018-02-27T09:32:02.159Z,5936
2018-02-27T09:33:01.889Z,5928
2018-02-27T09:34:02.143Z,5876
2018-02-27T09:35:01.905Z,5852
2018-02-27T09:36:02.094Z,5800
2018-02-27T09:37:02.333Z,5792
2018-02-27T09:38:02.318Z,5820
2018-02-27T09:39:02.308Z,5848
2018-02-27T09:40:02.041Z,5880
2018-02-27T09:41:02.024Z,5916
2018-02-27T09:42:01.744Z,5988
2018-02-27T09:43:01.993Z,6104
2018-02-27T09:44:01.724Z,6204
2018-02-27T09:45:02.806Z,6332
2018-02-27T09:46:02.259Z,6448
2018-02-27T09:47:02.181Z,6420
2018-02-27T09:48:01.914Z,6360
2018-02-27T09:49:02.157Z,6384
2018-02-27T09:50:01.618Z,6404
2018-02-27T09:51:01.856Z,6420
2018-02-27T09:52:02.104Z,6448
2018-02-27T09:53:01.849Z,6472
2018-02-27T09:54:02.087Z,6460
2018-02-27T09:55:01.540Z,6472
2018-02-27T09:56:01.527Z,6524
2018-02-27T09:57:02.032Z,6424
2018-02-27T09:58:02.052Z,6288
2018-02-27T09:59:01.470Z,6304
2018-02-27T10:00:02.812Z,6380
2018-02-27T10:01:01.691Z,6468
2018-02-27T10:02:01.929Z,6532
2018-02-27T10:03:01.667Z,6484
2018-02-27T10:04:01.640Z,6416
2018-02-27T10:05:01.889Z,6208
2018-02-27T10:06:01.920Z,6032
2018-02-27T10:07:01.610Z,5884
2018-02-27T10:08:01.875Z,5844
2018-02-27T10:09:01.574Z,5976
2018-02-27T10:10:01.814Z,6064
2018-02-27T10:11:01.844Z,6112
2018-02-27T10:12:01.553Z,6116
2018-02-27T10:13:01.764Z,6124
2018-02-27T10:14:01.252Z,6224
2018-02-27T10:15:01.215Z,6336
2018-02-27T10:16:02.984Z,6368
2018-02-27T10:17:01.440Z,6300
2018-02-27T10:18:01.681Z,6260
2018-02-27T10:19:01.413Z,6204
2018-02-27T10:20:01.647Z,6160
2018-02-27T10:21:01.377Z,6156
2018-02-27T10:22:01.363Z,6180
2018-02-27T10:23:01.360Z,6220
2018-02-27T10:24:01.342Z,6228
2018-02-27T10:25:01.580Z,6192
2018-02-27T10:26:01.300Z,6284
2018-02-27T10:27:01.033Z,6364
2018-02-27T10:57:01.441Z,6752
2018-02-27T10:58:01.615Z,6644
2018-02-27T10:59:01.595Z,6652
2018-02-27T11:00:01.576Z,6776
2018-02-27T11:01:01.046Z,6948
2018-02-27T11:02:01.652Z,7184
2018-02-27T11:03:01.266Z,7260
2018-02-27T11:04:01.517Z,7248
2018-02-27T11:05:01.237Z,7564
2018-02-27T11:06:00.957Z,7980
2018-02-27T11:07:01.454Z,7908
2018-02-27T11:08:00.929Z,7768
2018-02-27T11:09:00.928Z,7680
2018-02-27T11:10:00.898Z,7516
2018-02-27T11:11:01.141Z,7216
2018-02-27T11:12:01.691Z,6700
2018-02-27T11:13:01.361Z,6592
2018-02-27T11:14:01.404Z,6532
2018-02-27T11:15:01.070Z,6476
2018-02-27T11:16:01.055Z,6452
2018-02-27T11:17:01.093Z,6472
2018-02-27T11:18:01.292Z,6560
2018-02-27T11:19:01.258Z,6728
2018-02-27T11:20:01.340Z,6868
2018-02-27T11:21:00.976Z,6968
2018-02-27T11:22:00.970Z,6912
2018-02-27T11:23:00.690Z,6792
2018-02-27T11:24:01.191Z,6860
2018-02-27T11:25:00.913Z,6936
2018-02-27T11:26:00.915Z,7076
2018-02-27T11:27:00.952Z,7216
2018-02-27T11:28:01.120Z,7308
2018-02-27T11:29:00.850Z,7336
2018-02-27T11:30:00.831Z,7332
2018-02-27T11:31:01.088Z,7284
2018-02-27T11:32:00.560Z,7168
2018-02-27T11:33:00.782Z,7008
2018-02-27T11:34:01.029Z,6944
2018-02-27T11:35:01.029Z,6932
2018-02-27T11:36:00.748Z,6920
2018-02-27T11:37:00.983Z,6888
2018-02-27T11:38:00.964Z,6984
2018-02-27T11:39:00.961Z,7064
2018-02-27T11:40:00.949Z,7140
2018-02-27T11:41:00.671Z,7144
2018-02-27T11:42:02.714Z,7076
2018-02-27T11:43:00.638Z,7028
2018-02-27T11:44:00.366Z,7068
2018-02-27T11:45:00.606Z,7164
2018-02-27T11:46:00.607Z,7224
2018-02-27T11:47:00.583Z,7156
2018-02-27T11:48:00.575Z,6976
2018-02-27T11:49:00.892Z,6772
2018-02-27T11:50:00.784Z,6596
2018-02-27T11:51:00.776Z,6492
2018-02-27T11:52:00.757Z,6452
2018-02-27T11:53:00.501Z,6492
2018-02-27T11:54:00.742Z,6840
2018-02-27T11:55:00.460Z,6996
2018-02-27T11:56:00.699Z,7176
2018-02-27T11:57:00.482Z,7028
2018-02-27T11:58:00.670Z,7080
2018-02-27T11:59:00.396Z,7160
2018-02-27T12:00:00.391Z,7008
2018-02-27T12:01:00.380Z,7036
2018-02-27T12:02:00.355Z,6684
2018-02-27T12:03:00.351Z,6852
2018-02-27T12:04:00.327Z,6820
2018-02-27T12:05:00.568Z,7312
2018-02-27T12:06:00.336Z,7184
2018-02-27T12:07:00.279Z,6996
2018-02-27T12:08:00.273Z,7256
2018-02-27T12:08:59.997Z,7676
2018-02-27T12:10:00.244Z,7260
2018-02-27T12:11:00.481Z,7020
2018-02-27T12:12:01.767Z,7556
2018-02-27T12:13:00.200Z,7432
2018-02-27T12:14:00.179Z,6736
2018-02-27T12:15:00.434Z,6580
2018-02-27T12:16:00.175Z,6444
2018-02-27T12:17:00.128Z,6368
2018-02-27T12:18:00.372Z,6316
2018-02-27T12:19:00.353Z,6276
2018-02-27T12:20:00.339Z,6220
2018-02-27T12:21:00.086Z,6208
2018-02-27T12:21:59.812Z,6184
2018-02-27T12:23:00.059Z,6140
2018-02-27T12:24:00.331Z,6100
2018-02-27T12:25:00.279Z,6128
2018-02-27T12:26:00.008Z,6240
2018-02-27T12:26:59.985Z,6348
2018-02-27T12:27:59.967Z,6504
2018-02-27T12:28:59.946Z,6768
2018-02-27T12:29:59.933Z,7072
2018-02-27T12:30:59.918Z,7176
2018-02-27T12:31:59.917Z,7376
2018-02-27T12:32:59.894Z,7560
2018-02-27T12:34:00.137Z,7748
2018-02-27T12:34:59.879Z,7908
2018-02-27T12:36:00.135Z,7872
2018-02-27T12:37:00.087Z,7876
2018-02-27T12:37:59.569Z,7948
2018-02-27T12:38:59.579Z,8496
2018-02-27T12:39:59.528Z,8532
2018-02-27T12:41:00.031Z,8432
2018-02-27T12:42:00.114Z,8348
2018-02-27T12:42:59.741Z,8220
2018-02-27T12:43:59.736Z,8020
2018-02-27T12:44:59.469Z,7808
2018-02-27T12:45:59.457Z,7964
2018-02-27T12:46:59.696Z,7560
2018-02-27T12:47:59.163Z,7452
2018-02-27T12:48:59.920Z,7444
2018-02-27T12:49:59.908Z,7256
2018-02-27T12:50:59.379Z,7280
2018-02-27T12:51:59.874Z,7172
2018-02-27T12:52:59.660Z,7444
2018-02-27T12:53:59.597Z,6776
2018-02-27T12:54:59.324Z,6608
2018-02-27T12:55:59.560Z,6616
2018-02-27T12:56:59.560Z,6748
2018-02-27T12:58:03.845Z,6984
2018-02-27T12:58:59.537Z,6952
2018-02-27T12:59:59.509Z,6888
2018-02-27T13:00:59.752Z,6716
2018-02-27T13:01:59.473Z,6668
2018-02-27T13:02:59.732Z,6840
2018-02-27T13:03:59.451Z,6980
2018-02-27T13:04:59.791Z,7316
2018-02-27T13:05:59.421Z,7516
2018-02-27T13:06:59.148Z,7516
2018-02-27T13:07:59.144Z,7068
2018-02-27T13:08:59.630Z,6860
2018-02-27T13:09:59.631Z,6764
2018-02-27T13:10:59.607Z,6932
2018-02-27T13:11:59.376Z,6760
2018-02-27T13:12:59.791Z,6980
2018-02-27T13:13:59.596Z,6868
2018-02-27T13:14:58.791Z,6608
2018-02-27T13:15:59.540Z,6376
2018-02-27T13:16:59.528Z,6632
2018-02-27T13:17:59.294Z,6436
2018-02-27T13:18:59.252Z,6300
2018-02-27T13:19:59.237Z,6224
2018-02-27T13:20:59.468Z,6188
2018-02-27T13:21:59.222Z,5888
2018-02-27T13:22:59.203Z,6020
2018-02-27T13:23:59.171Z,5728
2018-02-27T13:24:59.405Z,5888
2018-02-27T13:25:59.139Z,5944
2018-02-27T13:26:59.136Z,6012
2018-02-27T13:27:58.863Z,6012
2018-02-27T13:28:58.881Z,6000
2018-02-27T13:29:59.339Z,5840
2018-02-27T13:30:59.103Z,6044
2018-02-27T13:31:59.309Z,6016
2018-02-27T13:32:59.332Z,5916
2018-02-27T13:33:59.098Z,5820
2018-02-27T13:34:59.282Z,5868
2018-02-27T13:35:59.256Z,5968
2018-02-27T13:36:59.242Z,6084
2018-02-27T13:37:59.245Z,6172
2018-02-27T13:38:59.225Z,6160
2018-02-27T13:39:58.952Z,6012
2018-02-27T13:40:58.933Z,5956
2018-02-27T13:41:58.986Z,5960
2018-02-27T13:42:58.993Z,5888
2018-02-27T13:43:59.140Z,5796
2018-02-27T13:44:59.134Z,5752
2018-02-27T13:45:59.112Z,5664
2018-02-27T13:46:59.114Z,5652
2018-02-27T13:47:59.151Z,5640
2018-02-27T13:49:06.694Z,5612
2018-02-27T13:49:58.801Z,5664
2018-02-27T13:50:58.802Z,5740
2018-02-27T13:51:59.055Z,5736
2018-02-27T13:52:59.013Z,5704
2018-02-27T13:53:58.744Z,5724
2018-02-27T13:54:58.734Z,5724
2018-02-27T13:55:58.726Z,5736
2018-02-27T13:56:58.454Z,5688
2018-02-27T13:57:59.060Z,5664
2018-02-27T13:58:58.930Z,5636
2018-02-27T13:59:58.660Z,5648
2018-02-27T14:00:58.400Z,5624
2018-02-27T14:01:58.386Z,5620
2018-02-27T14:02:58.857Z,5548
2018-02-27T14:03:58.595Z,5764
2018-02-27T14:04:58.830Z,5764
2018-02-27T14:05:58.829Z,5828
2018-02-27T14:06:58.828Z,5832
2018-02-27T14:07:58.814Z,5804
2018-02-27T14:08:58.846Z,5804
2018-02-27T14:09:58.519Z,5508
2018-02-27T14:10:58.516Z,5816
2018-02-27T14:11:58.484Z,5804
2018-02-27T14:12:58.736Z,5656
2018-02-27T14:13:58.714Z,5640
2018-02-27T14:14:58.440Z,5640
2018-02-27T14:15:58.686Z,5352
2018-02-27T14:16:58.413Z,5388
2018-02-27T14:17:58.418Z,5492
2018-02-27T14:18:58.629Z,5564
2018-02-27T14:19:58.126Z,5620
2018-02-27T14:20:59.047Z,5696
2018-02-27T14:21:58.079Z,5800
2018-02-27T14:22:58.582Z,5888
2018-02-27T14:23:58.557Z,6044